createdAt,value
2019-01-20T00:01:31.531Z,95015.20
2019-01-20T00:04:00.725Z,95007.56
2019-01-20T00:06:29.945Z,95011.27
2019-01-20T00:08:59.135Z,95012.55
2019-01-20T00:11:28.364Z,95011.66
2019-01-20T00:13:57.662Z,95004.11
2019-01-20T00:16:27.119Z,95000.84
2019-01-20T00:18:56.328Z,94998.30
2019-01-20T00:21:25.542Z,95000.33
2019-01-20T00:23:55.372Z,95001.05
2019-01-20T00:26:24.554Z,95005.46
2019-01-20T00:28:53.739Z,95009.28
2019-01-20T00:31:22.940Z,95008.89
2019-01-20T00:33:52.230Z,95010.21
2019-01-20T00:36:21.429Z,95011.31
2019-01-20T00:38:50.631Z,95014.19
2019-01-20T00:41:24.096Z,95006.47
2019-01-20T00:43:50.776Z,95001.80
2019-01-20T00:46:20.015Z,94996.88
2019-01-20T00:48:49.205Z,95006.55
2019-01-20T00:51:18.457Z,94998.02
2019-01-20T00:53:47.662Z,95003.84
2019-01-20T00:56:16.846Z,95004.67
2019-01-20T00:58:46.052Z,95001.13
2019-01-20T01:01:15.238Z,95001.05
2019-01-20T01:03:44.440Z,95002.52
2019-01-20T01:06:13.627Z,94997.34
2019-01-20T01:08:42.814Z,94996.47
2019-01-20T01:11:12.021Z,95000.66
2019-01-20T01:13:41.204Z,95002.37
2019-01-20T01:16:10.414Z,95000.53
2019-01-20T01:18:39.606Z,95001.76
2019-01-20T01:21:08.809Z,95001.80
2019-01-20T01:23:38.032Z,94998.98
2019-01-20T01:26:07.207Z,95002.68
2019-01-20T01:28:36.680Z,95000.06
2019-01-20T01:31:05.859Z,95006.67
2019-01-20T01:33:35.041Z,95001.33
2019-01-20T01:36:04.249Z,95006.43
2019-01-20T01:38:33.431Z,95006.03
2019-01-20T01:41:02.642Z,95007.39
2019-01-20T01:43:31.820Z,95009.06
2019-01-20T01:46:01.001Z,95000.84
2019-01-20T01:48:30.473Z,95005.95
2019-01-20T01:50:59.937Z,95016.48
2019-01-20T01:53:29.136Z,95020.16
2019-01-20T01:55:58.314Z,95009.92
2019-01-20T01:58:27.833Z,95007.42
2019-01-20T02:00:57.021Z,95005.11
2019-01-20T02:03:26.199Z,94995.63
2019-01-20T02:05:55.405Z,95000.66
2019-01-20T02:08:24.587Z,95003.84
2019-01-20T02:10:53.793Z,95001.09
2019-01-20T02:13:22.989Z,94994.36
2019-01-20T02:15:52.191Z,95004.74
2019-01-20T02:18:21.377Z,94998.59
2019-01-20T02:20:50.560Z,95005.72
2019-01-20T02:23:20.070Z,95000.83
2019-01-20T02:25:49.253Z,94992.42
2019-01-20T02:28:18.458Z,94990.80
2019-01-20T02:30:47.645Z,94992.59
2019-01-20T02:33:16.856Z,94996.73
2019-01-20T02:35:46.038Z,94993.08
2019-01-20T02:38:15.217Z,95001.44
2019-01-20T02:40:44.425Z,95001.14
2019-01-20T02:43:13.882Z,95003.55
2019-01-20T02:45:43.097Z,95001.83
2019-01-20T02:48:12.289Z,95004.96
2019-01-20T02:50:41.515Z,95006.50
2019-01-20T02:53:10.715Z,95000.70
2019-01-20T02:55:39.946Z,94996.10
2019-01-20T02:58:09.128Z,94986.99
2019-01-20T03:00:38.342Z,94989.50
2019-01-20T03:03:07.527Z,94990.62
2019-01-20T03:05:36.758Z,94983.03
2019-01-20T03:08:06.265Z,94985.02
2019-01-20T03:10:35.470Z,94994.26
2019-01-20T03:13:04.687Z,94990.31
2019-01-20T03:15:33.895Z,94992.52
2019-01-20T03:18:03.388Z,94990.61
2019-01-20T03:20:32.610Z,94985.70
2019-01-20T03:23:01.842Z,94992.28
2019-01-20T03:25:31.047Z,94993.34
2019-01-20T03:28:00.247Z,94987.56
2019-01-20T03:30:29.491Z,94986.09
2019-01-20T03:32:58.666Z,94985.63
2019-01-20T03:35:28.162Z,94983.34
2019-01-20T03:37:57.630Z,94983.38
2019-01-20T03:40:26.854Z,94983.64
2019-01-20T03:42:56.048Z,94986.88
2019-01-20T03:45:25.281Z,94984.20
2019-01-20T03:47:54.476Z,94982.34
2019-01-20T03:50:23.658Z,94981.95
2019-01-20T03:52:52.863Z,94985.38
2019-01-20T03:55:22.309Z,94986.66
2019-01-20T03:57:51.523Z,94978.69
2019-01-20T04:00:24.937Z,94975.86
2019-01-20T04:02:59.472Z,94976.22
2019-01-20T04:05:28.731Z,94968.38
2019-01-20T04:07:58.037Z,94979.67
2019-01-20T04:10:28.126Z,94974.50
2019-01-20T04:12:57.350Z,94981.70
2019-01-20T04:15:26.539Z,94986.19
2019-01-20T04:17:55.727Z,94984.41
2019-01-20T04:20:24.952Z,94988.72
2019-01-20T04:22:54.189Z,94986.95
2019-01-20T04:25:23.408Z,94987.39
2019-01-20T04:27:52.596Z,94990.82
2019-01-20T04:30:22.041Z,94986.30
2019-01-20T04:32:51.293Z,94982.67
2019-01-20T04:35:20.445Z,94988.02
2019-01-20T04:37:49.663Z,94988.65
2019-01-20T04:40:20.989Z,94985.66
2019-01-20T04:42:50.209Z,94985.66
2019-01-20T04:45:20.195Z,94981.95
2019-01-20T04:47:49.747Z,94977.77
2019-01-20T04:50:21.069Z,94978.72
2019-01-20T04:52:50.316Z,94974.39
2019-01-20T04:55:20.071Z,94979.80
2019-01-20T04:57:51.419Z,94981.84
2019-01-20T05:00:22.536Z,94976.30
2019-01-20T05:02:51.709Z,94972.37
2019-01-20T05:05:21.021Z,94979.25
2019-01-20T05:07:50.244Z,94985.60
2019-01-20T05:10:19.466Z,94981.70
2019-01-20T05:12:48.650Z,94986.77
2019-01-20T05:15:19.804Z,94985.48
2019-01-20T05:17:49.059Z,94982.35
2019-01-20T05:20:18.684Z,94991.08
2019-01-20T05:22:47.989Z,94986.30
2019-01-20T05:25:17.372Z,94993.32
2019-01-20T05:27:46.593Z,94989.86
2019-01-20T05:30:20.998Z,94989.50
2019-01-20T05:32:50.210Z,94992.27
2019-01-20T05:35:19.450Z,94996.99
2019-01-20T05:37:48.934Z,94997.44
2019-01-20T05:40:18.391Z,94997.70
2019-01-20T05:42:47.681Z,94993.11
2019-01-20T05:45:18.811Z,94998.41
2019-01-20T05:47:48.001Z,94993.93
2019-01-20T05:50:17.323Z,94995.80
2019-01-20T05:52:46.519Z,94990.45
2019-01-20T05:55:15.890Z,94997.84
2019-01-20T05:57:45.095Z,94995.36
2019-01-20T06:00:22.653Z,94999.37
2019-01-20T06:02:51.869Z,94994.59
2019-01-20T06:05:21.111Z,94998.02
2019-01-20T06:07:50.560Z,94999.18
2019-01-20T06:10:19.750Z,94998.34
2019-01-20T06:12:53.826Z,94999.30
2019-01-20T06:15:20.710Z,94997.52
2019-01-20T06:17:49.933Z,94994.55
2019-01-20T06:20:19.284Z,94998.64
2019-01-20T06:22:48.657Z,95003.69
2019-01-20T06:25:17.789Z,95002.87
2019-01-20T06:27:47.292Z,95007.24
2019-01-20T06:30:27.491Z,95000.11
2019-01-20T06:32:56.680Z,95005.39
2019-01-20T06:35:25.881Z,95004.63
2019-01-20T06:37:55.073Z,95002.27
2019-01-20T06:40:24.832Z,95010.96
2019-01-20T06:43:01.266Z,95010.13
2019-01-20T06:45:25.223Z,95016.28
2019-01-20T06:47:54.688Z,95017.01
2019-01-20T06:50:23.968Z,95020.31
2019-01-20T06:52:53.172Z,95023.00
2019-01-20T06:55:22.361Z,95026.31
2019-01-20T06:57:51.570Z,95021.33
2019-01-20T07:00:22.243Z,95028.97
2019-01-20T07:02:51.483Z,95031.45
2019-01-20T07:05:20.665Z,95037.20
2019-01-20T07:07:50.451Z,95036.25
2019-01-20T07:10:20.360Z,95036.45
2019-01-20T07:12:49.570Z,95037.33
2019-01-20T07:15:20.843Z,95040.95
2019-01-20T07:17:50.128Z,95043.11
2019-01-20T07:20:19.349Z,95044.91
2019-01-20T07:22:48.629Z,95040.19
2019-01-20T07:25:17.965Z,95042.50
2019-01-20T07:27:47.459Z,95048.97
2019-01-20T07:30:21.336Z,95055.48
2019-01-20T07:32:50.617Z,95055.17
2019-01-20T07:35:19.807Z,95050.50
2019-01-20T07:37:49.209Z,95054.41
2019-01-20T07:40:19.684Z,95059.63
2019-01-20T07:42:48.891Z,95059.17
2019-01-20T07:45:18.296Z,95067.63
2019-01-20T07:47:47.776Z,95068.66
2019-01-20T07:50:19.390Z,95068.31
2019-01-20T07:52:48.845Z,95070.11
2019-01-20T07:55:18.058Z,95072.91
2019-01-20T07:57:47.255Z,95067.05
2019-01-20T08:00:18.425Z,95071.78
2019-01-20T08:02:47.612Z,95074.50
2019-01-20T08:05:16.915Z,95070.28
2019-01-20T08:07:46.089Z,95070.68
2019-01-20T08:10:20.615Z,95073.27
2019-01-20T08:12:49.787Z,95074.19
2019-01-20T08:15:19.204Z,95070.67
2019-01-20T08:17:48.382Z,95078.17
2019-01-20T08:20:18.813Z,95076.69
2019-01-20T08:22:48.130Z,95083.95
2019-01-20T08:25:18.363Z,95084.95
2019-01-20T08:27:47.560Z,95085.23
2019-01-20T08:30:21.432Z,95091.80
2019-01-20T08:32:50.616Z,95087.30
2019-01-20T08:35:19.791Z,95094.52
2019-01-20T08:37:49.294Z,95093.67
2019-01-20T08:40:20.820Z,95097.63
2019-01-20T08:42:50.292Z,95097.70
2019-01-20T08:45:58.808Z,95100.36
2019-01-20T08:48:28.287Z,95101.09
2019-01-20T08:50:58.046Z,95105.47
2019-01-20T08:53:28.498Z,95103.86
2019-01-20T08:55:57.674Z,95107.20
2019-01-20T08:58:26.913Z,95109.85
2019-01-20T09:00:56.110Z,95109.35
2019-01-20T09:03:25.299Z,95114.27
2019-01-20T09:05:54.510Z,95115.34
2019-01-20T09:08:23.693Z,95115.95
2019-01-20T09:10:53.166Z,95114.91
2019-01-20T09:13:22.520Z,95115.21
2019-01-20T09:15:51.715Z,95121.70
2019-01-20T09:18:20.887Z,95125.53
2019-01-20T09:20:50.090Z,95124.70
2019-01-20T09:23:19.263Z,95127.80
2019-01-20T09:25:48.455Z,95126.66
2019-01-20T09:28:17.656Z,95124.58
2019-01-20T09:30:46.832Z,95130.00
2019-01-20T09:33:24.309Z,95129.38
2019-01-20T09:35:47.071Z,95132.23
2019-01-20T09:38:16.224Z,95136.90
2019-01-20T09:40:45.679Z,95141.19
2019-01-20T09:43:14.880Z,95144.55
2019-01-20T09:45:44.053Z,95138.03
2019-01-20T09:48:13.505Z,95136.63
2019-01-20T09:50:44.549Z,95133.08
2019-01-20T09:53:13.643Z,95138.70
2019-01-20T09:55:42.839Z,95138.59
2019-01-20T09:58:12.015Z,95138.98
2019-01-20T10:00:41.222Z,95140.95
2019-01-20T10:03:16.157Z,95136.86
2019-01-20T10:05:41.346Z,95142.34
2019-01-20T10:08:11.532Z,95139.66
2019-01-20T10:10:40.731Z,95139.66
2019-01-20T10:13:09.904Z,95140.95
2019-01-20T10:15:39.115Z,95138.80
2019-01-20T10:18:08.290Z,95135.48
2019-01-20T10:20:37.498Z,95132.03
2019-01-20T10:23:06.685Z,95132.63
2019-01-20T10:25:35.864Z,95142.59
2019-01-20T10:28:06.647Z,95142.80
2019-01-20T10:30:37.076Z,95143.84
2019-01-20T10:33:06.270Z,95146.40
2019-01-20T10:35:38.190Z,95147.63
2019-01-20T10:38:08.968Z,95142.51
2019-01-20T10:40:38.143Z,95143.55
2019-01-20T10:43:07.369Z,95144.13
2019-01-20T10:45:36.806Z,95140.92
2019-01-20T10:48:06.522Z,95144.02
2019-01-20T10:50:35.803Z,95144.83
2019-01-20T10:53:05.501Z,95145.84
2019-01-20T10:55:34.979Z,95150.14
2019-01-20T10:58:04.321Z,95147.58
2019-01-20T11:00:36.425Z,95149.59
2019-01-20T11:03:05.929Z,95145.59
2019-01-20T11:05:35.383Z,95141.81
2019-01-20T11:08:04.699Z,95146.87
2019-01-20T11:10:34.184Z,95142.55
2019-01-20T11:13:03.684Z,95147.33
2019-01-20T11:15:32.870Z,95148.47
2019-01-20T11:18:02.039Z,95152.25
2019-01-20T11:20:31.240Z,95156.75
2019-01-20T11:23:00.419Z,95154.67
2019-01-20T11:25:31.988Z,95158.67
2019-01-20T11:28:01.166Z,95163.05
2019-01-20T11:30:30.363Z,95160.97
2019-01-20T11:32:59.880Z,95165.50
2019-01-20T11:35:29.093Z,95161.59
2019-01-20T11:37:58.278Z,95169.34
2019-01-20T11:40:27.461Z,95171.16
2019-01-20T11:42:56.664Z,95165.05
2019-01-20T11:45:28.258Z,95157.19
2019-01-20T11:47:57.452Z,95155.67
2019-01-20T11:50:26.761Z,95156.41
2019-01-20T11:52:55.940Z,95155.28
2019-01-20T11:55:25.364Z,95155.64
2019-01-20T11:57:54.571Z,95159.13
2019-01-20T12:00:26.273Z,95156.47
2019-01-20T12:02:55.462Z,95147.95
2019-01-20T12:05:24.710Z,95152.96
2019-01-20T12:07:54.320Z,95156.47
2019-01-20T12:10:23.527Z,95158.34
2019-01-20T12:12:57.893Z,95157.27
2019-01-20T12:15:27.096Z,95159.45
2019-01-20T12:17:56.276Z,95156.83
2019-01-20T12:20:25.481Z,95157.56
2019-01-20T12:22:54.919Z,95160.28
2019-01-20T12:25:24.118Z,95158.80
2019-01-20T12:27:53.308Z,95154.32
2019-01-20T12:30:24.319Z,95156.73
2019-01-20T12:32:53.508Z,95156.20
2019-01-20T12:35:22.986Z,95154.47
2019-01-20T12:37:52.497Z,95159.50
2019-01-20T12:40:24.582Z,95157.33
2019-01-20T12:42:53.791Z,95157.77
2019-01-20T12:45:22.972Z,95157.12
2019-01-20T12:47:52.923Z,95161.16
2019-01-20T12:50:22.134Z,95158.38
2019-01-20T12:52:51.471Z,95159.66
2019-01-20T12:55:20.678Z,95156.05
2019-01-20T12:57:49.913Z,95159.09
2019-01-20T13:00:19.401Z,95154.56
2019-01-20T13:02:48.934Z,95159.93
2019-01-20T13:05:18.167Z,95158.35
2019-01-20T13:07:47.370Z,95149.38
2019-01-20T13:10:17.339Z,95152.84
2019-01-20T13:12:46.574Z,95151.32
2019-01-20T13:15:17.890Z,95155.78
2019-01-20T13:17:47.356Z,95144.61
2019-01-20T13:20:18.810Z,95152.24
2019-01-20T13:22:48.428Z,95153.50
2019-01-20T13:25:28.476Z,95153.25
2019-01-20T13:27:57.694Z,95154.33
2019-01-20T13:30:28.205Z,95159.69
2019-01-20T13:32:57.708Z,95156.20
2019-01-20T13:35:27.894Z,95161.03
2019-01-20T13:38:11.483Z,95165.56
2019-01-20T13:40:46.807Z,95165.80
2019-01-20T13:43:16.039Z,95170.17
2019-01-20T13:45:45.509Z,95165.41
2019-01-20T13:48:14.729Z,95166.36
2019-01-20T13:50:44.030Z,95158.20
2019-01-20T13:53:13.281Z,95163.73
2019-01-20T13:55:42.612Z,95168.37
2019-01-20T13:58:11.822Z,95172.61
2019-01-20T14:00:41.147Z,95163.11
2019-01-20T14:03:10.479Z,95166.95
2019-01-20T14:05:39.667Z,95170.09
2019-01-20T14:08:09.026Z,95174.59
2019-01-20T14:10:38.208Z,95177.89
2019-01-20T14:13:07.433Z,95163.98
2019-01-20T14:15:36.679Z,95167.14
2019-01-20T14:18:05.889Z,95170.89
2019-01-20T14:20:35.183Z,95174.56
2019-01-20T14:23:04.747Z,95173.97
2019-01-20T14:25:33.957Z,95178.91
2019-01-20T14:28:03.432Z,95178.70
2019-01-20T14:30:32.784Z,95178.79
2019-01-20T14:33:02.095Z,95183.80
2019-01-20T14:35:32.140Z,95187.40
2019-01-20T14:38:01.650Z,95186.86
2019-01-20T14:40:30.872Z,95180.45
2019-01-20T14:43:00.061Z,95180.75
2019-01-20T14:45:29.291Z,95183.47
2019-01-20T14:47:58.915Z,95193.33
2019-01-20T14:50:28.543Z,95189.66
2019-01-20T14:52:58.079Z,95192.37
2019-01-20T14:55:27.297Z,95193.45
2019-01-20T14:57:56.775Z,95189.15
2019-01-20T15:00:34.341Z,95200.31
2019-01-20T15:03:03.644Z,95194.53
2019-01-20T15:05:33.063Z,95203.33
2019-01-20T15:08:02.364Z,95206.12
2019-01-20T15:10:31.771Z,95200.39
2019-01-20T15:13:00.956Z,95200.39
2019-01-20T15:15:32.560Z,95208.16
2019-01-20T15:18:02.036Z,95207.95
2019-01-20T15:20:31.253Z,95207.86
2019-01-20T15:23:00.453Z,95209.38
2019-01-20T15:25:29.668Z,95203.98
2019-01-20T15:27:58.858Z,95209.55
2019-01-20T15:30:29.725Z,95205.01
2019-01-20T15:33:00.169Z,95211.50
2019-01-20T15:35:29.366Z,95204.65
2019-01-20T15:37:59.060Z,95209.47
2019-01-20T15:40:28.485Z,95211.36
2019-01-20T15:42:57.709Z,95213.97
2019-01-20T15:45:27.189Z,95217.15
2019-01-20T15:47:56.415Z,95214.20
2019-01-20T15:50:27.712Z,95223.16
2019-01-20T15:52:56.932Z,95221.87
2019-01-20T15:55:26.139Z,95218.66
2019-01-20T15:57:55.641Z,95225.59
2019-01-20T16:00:26.723Z,95229.52
2019-01-20T16:02:56.010Z,95231.77
2019-01-20T16:05:26.272Z,95230.32
2019-01-20T16:07:55.460Z,95236.66
2019-01-20T16:10:25.512Z,95233.27
2019-01-20T16:12:55.023Z,95238.84
2019-01-20T16:15:26.823Z,95243.34
2019-01-20T16:17:56.868Z,95242.01
2019-01-20T16:20:27.061Z,95240.78
2019-01-20T16:22:56.418Z,95246.29
2019-01-20T16:25:28.003Z,95245.02
2019-01-20T16:27:57.218Z,95246.52
2019-01-20T16:30:28.949Z,95244.40
2019-01-20T16:32:58.155Z,95246.52
2019-01-20T16:35:27.932Z,95254.28
2019-01-20T16:37:57.998Z,95255.25
2019-01-20T16:40:27.306Z,95254.50
2019-01-20T16:42:56.791Z,95254.27
2019-01-20T16:45:33.030Z,95258.86
2019-01-20T16:48:00.181Z,95258.99
2019-01-20T16:50:29.475Z,95264.11
2019-01-20T16:52:58.666Z,95258.99
2019-01-20T16:55:28.658Z,95255.29
2019-01-20T16:57:58.163Z,95262.95
2019-01-20T17:00:29.386Z,95260.80
2019-01-20T17:02:58.848Z,95267.42
2019-01-20T17:05:28.049Z,95265.00
2019-01-20T17:07:57.263Z,95263.44
2019-01-20T17:10:29.063Z,95269.98
2019-01-20T17:12:58.542Z,95271.34
2019-01-20T17:15:30.231Z,95274.17
2019-01-20T17:17:59.471Z,95272.09
2019-01-20T17:20:28.676Z,95279.16
2019-01-20T17:22:57.878Z,95280.44
2019-01-20T17:25:27.091Z,95286.83
2019-01-20T17:27:56.556Z,95287.67
2019-01-20T17:30:27.618Z,95285.63
2019-01-20T17:32:56.904Z,95288.63
2019-01-20T17:35:26.112Z,95292.87
2019-01-20T17:37:55.302Z,95292.77
2019-01-20T17:40:25.943Z,95301.25
2019-01-20T17:42:55.232Z,95303.11
2019-01-20T17:45:26.684Z,95303.81
2019-01-20T17:47:55.884Z,95309.32
2019-01-20T17:50:27.806Z,95315.56
2019-01-20T17:52:57.305Z,95316.01
2019-01-20T17:55:26.792Z,95318.80
2019-01-20T17:57:55.978Z,95317.12
2019-01-20T18:00:31.781Z,95317.59
2019-01-20T18:03:01.255Z,95320.39
2019-01-20T18:05:30.461Z,95321.82
2019-01-20T18:07:59.661Z,95330.55
2019-01-20T18:10:28.860Z,95330.02
2019-01-20T18:12:58.081Z,95332.58
2019-01-20T18:15:27.350Z,95332.27
2019-01-20T18:17:56.580Z,95339.58
2019-01-20T18:20:27.292Z,95335.95
2019-01-20T18:22:56.547Z,95336.08
2019-01-20T18:25:25.822Z,95339.08
2019-01-20T18:27:55.344Z,95340.36
2019-01-20T18:30:25.854Z,95343.44
2019-01-20T18:32:55.075Z,95344.59
2019-01-20T18:35:25.294Z,95352.16
2019-01-20T18:37:54.761Z,95352.92
2019-01-20T18:40:23.983Z,95356.39
2019-01-20T18:42:53.176Z,95356.08
2019-01-20T18:45:24.682Z,95365.59
2019-01-20T18:47:53.894Z,95365.88
2019-01-20T18:50:25.591Z,95364.48
2019-01-20T18:52:54.790Z,95365.44
2019-01-20T18:55:24.013Z,95366.48
2019-01-20T18:57:53.478Z,95366.32
2019-01-20T19:00:24.906Z,95364.80
2019-01-20T19:02:54.361Z,95364.56
2019-01-20T19:05:23.555Z,95367.56
2019-01-20T19:07:55.451Z,95369.05
2019-01-20T19:10:23.779Z,95368.04
2019-01-20T19:12:53.006Z,95369.36
2019-01-20T19:15:22.333Z,95372.48
2019-01-20T19:17:51.620Z,95373.64
2019-01-20T19:20:22.136Z,95377.55
2019-01-20T19:22:53.111Z,95381.31
2019-01-20T19:25:22.291Z,95385.82
2019-01-20T19:27:51.484Z,95382.66
2019-01-20T19:30:26.511Z,95385.30
2019-01-20T19:32:55.741Z,95385.82
2019-01-20T19:35:25.318Z,95386.78
2019-01-20T19:37:54.531Z,95384.42
2019-01-20T19:40:24.003Z,95392.92
2019-01-20T19:42:53.659Z,95386.09
2019-01-20T19:45:23.130Z,95391.05
2019-01-20T19:47:52.428Z,95389.41
2019-01-20T19:50:21.898Z,95393.61
2019-01-20T19:52:51.438Z,95394.97
2019-01-20T19:55:24.151Z,95394.01
2019-01-20T19:57:53.512Z,95404.08
2019-01-20T20:00:23.796Z,95402.36
2019-01-20T20:02:53.083Z,95405.31
2019-01-20T20:05:22.475Z,95410.55
2019-01-20T20:07:52.344Z,95408.00
2019-01-20T20:10:23.328Z,95413.03
2019-01-20T20:12:52.698Z,95417.02
2019-01-20T20:15:23.545Z,95416.95
2019-01-20T20:17:52.876Z,95415.94
2019-01-20T20:20:22.414Z,95419.63
2019-01-20T20:22:51.589Z,95425.33
2019-01-20T20:25:21.759Z,95427.69
2019-01-20T20:27:51.127Z,95433.63
2019-01-20T20:30:25.707Z,95431.40
2019-01-20T20:32:54.912Z,95429.98
2019-01-20T20:35:24.105Z,95434.03
2019-01-20T20:37:53.313Z,95430.20
2019-01-20T20:40:22.870Z,95431.03
2019-01-20T20:42:52.359Z,95436.56
2019-01-20T20:45:22.496Z,95438.68
2019-01-20T20:47:52.031Z,95433.76
2019-01-20T20:50:21.386Z,95438.36
2019-01-20T20:52:50.975Z,95439.64
2019-01-20T20:55:20.151Z,95445.91
2019-01-20T20:57:49.843Z,95442.52
2019-01-20T21:00:34.362Z,95445.00
2019-01-20T21:03:06.305Z,95447.62
2019-01-20T21:05:35.512Z,95448.31
2019-01-20T21:08:04.782Z,95441.95
2019-01-20T21:10:34.075Z,95454.22
2019-01-20T21:13:04.053Z,95451.48
2019-01-20T21:15:33.263Z,95457.80
2019-01-20T21:18:02.447Z,95456.02
2019-01-20T21:20:31.652Z,95457.41
2019-01-20T21:23:00.879Z,95467.27
2019-01-20T21:25:30.080Z,95468.59
2019-01-20T21:27:59.266Z,95471.54
2019-01-20T21:30:28.593Z,95472.82
2019-01-20T21:32:57.765Z,95469.42
2019-01-20T21:35:27.308Z,95479.28
2019-01-20T21:37:56.553Z,95478.89
2019-01-20T21:40:25.750Z,95476.73
2019-01-20T21:42:54.956Z,95478.45
2019-01-20T21:45:24.158Z,95478.26
2019-01-20T21:47:53.644Z,95480.48
2019-01-20T21:50:24.924Z,95478.05
2019-01-20T21:52:54.124Z,95484.77
2019-01-20T21:55:23.317Z,95488.67
2019-01-20T21:57:52.866Z,95485.28
2019-01-20T22:00:23.955Z,95494.44
2019-01-20T22:02:53.410Z,95492.82
2019-01-20T22:05:22.604Z,95491.42
2019-01-20T22:07:51.780Z,95495.05
2019-01-20T22:10:21.899Z,95495.20
2019-01-20T22:12:51.381Z,95503.77
2019-01-20T22:15:20.605Z,95504.65
2019-01-20T22:17:49.911Z,95502.28
2019-01-20T22:20:20.904Z,95498.31
2019-01-20T22:22:50.331Z,95507.91
2019-01-20T22:25:19.537Z,95500.75
2019-01-20T22:27:48.862Z,95502.80
2019-01-20T22:30:23.030Z,95503.19
2019-01-20T22:32:52.199Z,95502.88
2019-01-20T22:35:21.405Z,95501.59
2019-01-20T22:37:50.595Z,95503.94
2019-01-20T22:40:19.840Z,95508.54
2019-01-20T22:42:49.494Z,95500.42
2019-01-20T22:45:29.042Z,95512.05
2019-01-20T22:47:58.487Z,95512.01
2019-01-20T22:50:27.782Z,95514.16
2019-01-20T22:52:57.562Z,95513.02
2019-01-20T22:55:27.020Z,95515.77
2019-01-20T22:57:56.220Z,95516.20
2019-01-20T23:00:49.063Z,95511.37
2019-01-20T23:03:18.320Z,95516.17
2019-01-20T23:05:48.349Z,95521.28
2019-01-20T23:08:17.610Z,95514.89
2019-01-20T23:10:47.108Z,95522.41
2019-01-20T23:13:16.395Z,95516.67
2019-01-20T23:15:45.635Z,95510.54
2019-01-20T23:18:14.806Z,95519.73
2019-01-20T23:20:44.003Z,95515.70
2019-01-20T23:23:13.181Z,95517.16
2019-01-20T23:25:42.392Z,95519.28
2019-01-20T23:28:11.569Z,95515.77
2019-01-20T23:30:40.769Z,95520.30
2019-01-20T23:33:10.216Z,95520.30
2019-01-20T23:35:39.416Z,95516.10
2019-01-20T23:38:08.590Z,95517.42
2019-01-20T23:40:37.818Z,95523.88
2019-01-20T23:43:06.998Z,95524.25
2019-01-20T23:45:36.200Z,95524.65
2019-01-20T23:48:05.582Z,95529.33
2019-01-20T23:50:34.779Z,95525.16
2019-01-20T23:53:03.961Z,95529.88
2019-01-20T23:55:33.166Z,95527.32
2019-01-20T23:58:02.621Z,95524.33
